Time;durP1;ratioP1;P1;durP2;ratioP2;P2;SDS_P1;SDS_P2;PMS_P1;PMS_P2;Temp;Humidity;BMP_temperature;BMP_pressure;BME280_temperature;BME280_humidity;BME280_pressure;Samples;Min_cycle;Max_cycle;Signal;HPM_P1;HPM_P2
2021/11/01 00:00:37;;;;;;;3.63;3.43;;;;;;;6.65;96.87;94394.88;5022214;28;20239;-67
2021/11/01 00:03:06;;;;;;;3.17;2.97;;;;;;;6.60;96.83;94394.66;5019063;28;20250;-67
2021/11/01 00:05:34;;;;;;;3.80;3.27;;;;;;;6.48;96.25;94395.16;5028961;28;20662;-68
2021/11/01 00:08:02;;;;;;;3.53;3.33;;;;;;;6.38;96.11;94386.81;5010783;28;20220;-68
2021/11/01 00:10:31;;;;;;;4.53;4.23;;;;;;;6.30;96.46;94391.38;5020856;28;20770;-67
2021/11/01 00:13:00;;;;;;;5.10;3.60;;;;;;;6.20;96.51;94389.09;5021058;28;20270;-68
2021/11/01 00:15:28;;;;;;;4.50;4.20;;;;;;;6.15;96.83;94397.53;5020195;28;20641;-67
2021/11/01 00:17:56;;;;;;;5.07;4.73;;;;;;;5.96;96.87;94388.47;5016788;28;20780;-68
2021/11/01 00:20:25;;;;;;;3.03;2.83;;;;;;;5.84;96.21;94389.91;5021633;28;20285;-67
2021/11/01 00:22:53;;;;;;;4.67;4.27;;;;;;;5.77;95.83;94389.06;5023420;28;20240;-68
2021/11/01 00:25:21;;;;;;;2.70;2.50;;;;;;;5.71;95.18;94389.78;5022404;28;20239;-68
2021/11/01 00:27:50;;;;;;;3.27;3.07;;;;;;;5.58;95.00;94377.38;5062609;28;20218;-67
2021/11/01 00:30:20;;;;;;;2.70;2.60;;;;;;;5.50;95.16;94382.72;5023166;28;20289;-68
2021/11/01 00:32:48;;;;;;;2.93;2.73;;;;;;;5.42;95.58;94381.03;5020368;28;20258;-67
2021/11/01 00:35:16;;;;;;;2.97;2.77;;;;;;;5.41;95.85;94389.88;5022770;28;20277;-68
2021/11/01 00:37:45;;;;;;;3.73;3.53;;;;;;;5.42;96.31;94381.03;5019624;28;20231;-68
2021/11/01 00:40:14;;;;;;;3.77;3.50;;;;;;;5.44;96.64;94372.97;5035194;28;20215;-68
2021/11/01 00:42:42;;;;;;;3.23;3.03;;;;;;;5.45;96.77;94374.59;5015608;28;20211;-67
2021/11/01 00:45:12;;;;;;;5.07;4.73;;;;;;;5.45;97.04;94381.63;5021061;28;20220;-68
2021/11/01 00:47:41;;;;;;;3.47;3.27;;;;;;;5.45;97.14;94373.78;5014677;28;20215;-68
2021/11/01 00:50:09;;;;;;;4.77;3.90;;;;;;;5.58;97.79;94373.94;5002695;28;20227;-68
2021/11/01 00:52:38;;;;;;;5.60;5.07;;;;;;;5.69;98.55;94374.28;5010904;28;20224;-68
2021/11/01 00:55:10;;;;;;;3.93;3.63;;;;;;;5.78;98.41;94369.72;5026668;28;20223;-68
2021/11/01 00:57:38;;;;;;;3.93;3.67;;;;;;;5.90;99.03;94362.19;5009465;28;20238;-68
2021/11/01 01:00:08;;;;;;;3.07;2.87;;;;;;;6.06;99.53;94356.75;5005570;28;20247;-68
2021/11/01 01:02:35;;;;;;;2.43;2.33;;;;;;;6.19;99.53;94361.28;5024095;28;20290;-68
2021/11/01 01:05:07;;;;;;;3.37;3.17;;;;;;;6.03;97.67;94353.66;5025242;28;20225;-68
2021/11/01 01:07:36;;;;;;;4.13;3.83;;;;;;;5.92;97.01;94358.41;5020471;28;20297;-68
2021/11/01 01:10:04;;;;;;;5.10;4.80;;;;;;;5.53;95.53;94350.94;5036978;28;20254;-68
2021/11/01 01:12:32;;;;;;;4.40;4.13;;;;;;;5.25;95.31;94363.91;5037428;28;20337;-68
2021/11/01 01:15:03;;;;;;;3.73;3.47;;;;;;;5.09;95.24;94353.66;5017610;28;20499;-68
2021/11/01 01:17:37;;;;;;;4.40;4.13;;;;;;;5.00;96.07;94352.13;5024662;28;20395;-67
2021/11/01 01:20:09;;;;;;;3.17;3.03;;;;;;;4.95;97.12;94357.09;5043633;28;22134;-68
2021/11/01 01:22:39;;;;;;;3.37;3.17;;;;;;;4.94;97.60;94347.59;5015215;28;20695;-68
2021/11/01 01:25:17;;;;;;;3.63;3.43;;;;;;;4.96;98.42;94345.66;5035474;28;20229;-68
2021/11/01 01:27:47;;;;;;;3.60;3.30;;;;;;;5.02;99.15;94353.56;5036061;28;20217;-68
2021/11/01 01:30:16;;;;;;;3.30;3.10;;;;;;;5.07;99.94;94350.41;5032329;28;21828;-68
2021/11/01 01:32:45;;;;;;;3.03;2.83;;;;;;;5.12;100.00;94358.50;5023890;28;20253;-67
2021/11/01 01:35:15;;;;;;;4.27;3.97;;;;;;;5.14;99.76;94346.06;5023768;28;20253;-67
2021/11/01 01:37:44;;;;;;;4.13;3.83;;;;;;;5.19;99.93;94348.94;5040334;28;20222;-68
2021/11/01 01:40:16;;;;;;;3.97;3.67;;;;;;;5.24;100.00;94335.31;5040943;28;20315;-68
2021/11/01 01:42:44;;;;;;;3.77;3.57;;;;;;;5.33;100.00;94342.88;5041530;28;20510;-68
2021/11/01 01:45:14;;;;;;;3.33;3.13;;;;;;;5.55;100.00;94348.94;5033473;28;20624;-68
2021/11/01 01:47:44;;;;;;;3.70;3.40;;;;;;;5.73;100.00;94338.06;5037869;28;20221;-68
2021/11/01 01:50:15;;;;;;;3.90;3.70;;;;;;;5.98;100.00;94328.88;5035136;28;20695;-68
2021/11/01 01:52:48;;;;;;;3.77;3.47;;;;;;;6.27;100.00;94321.84;5048465;28;20301;-68
2021/11/01 01:55:18;;;;;;;2.37;2.17;;;;;;;6.58;100.00;94318.81;5043071;28;20229;-68
2021/11/01 01:57:46;;;;;;;2.73;2.53;;;;;;;6.83;100.00;94316.56;5050511;28;20230;-68
2021/11/01 02:00:26;;;;;;;3.00;2.80;;;;;;;7.01;100.00;94322.09;5044673;28;20230;-68
2021/11/01 02:02:55;;;;;;;2.97;2.77;;;;;;;7.02;100.00;94315.03;5037650;28;20268;-69
2021/11/01 02:05:29;;;;;;;2.33;2.23;;;;;;;6.95;99.39;94320.28;5038043;28;20386;-68
2021/11/01 02:08:03;;;;;;;2.40;2.30;;;;;;;6.88;99.07;94308.94;5046032;28;20226;-68
2021/11/01 02:10:36;;;;;;;2.07;1.97;;;;;;;6.79;98.65;94308.28;5047199;28;20812;-68
2021/11/01 02:13:08;;;;;;;2.80;2.70;;;;;;;6.76;98.55;94313.09;5047700;28;20295;-68
2021/11/01 02:15:41;;;;;;;3.40;3.10;;;;;;;6.72;98.25;94314.50;5047229;28;20236;-68
2021/11/01 02:18:12;;;;;;;3.37;2.27;;;;;;;6.66;97.81;94310.81;5041700;28;20222;-68
2021/11/01 02:20:54;;;;;;;2.50;2.40;;;;;;;6.46;96.67;94305.44;5066792;28;20222;-68
2021/11/01 02:23:26;;;;;;;1.70;1.60;;;;;;;6.29;96.26;94304.13;5061616;28;20234;-68
2021/11/01 02:25:58;;;;;;;3.17;3.07;;;;;;;6.15;96.67;94300.59;5052641;28;20222;-68
2021/11/01 02:28:31;;;;;;;1.90;1.80;;;;;;;6.15;96.98;94291.94;5065379;28;20671;-68
2021/11/01 02:31:01;;;;;;;2.93;2.73;;;;;;;6.22;97.69;94283.13;5066323;28;20226;-68
2021/11/01 02:33:30;;;;;;;2.00;1.90;;;;;;;6.25;97.80;94279.31;5057214;28;20271;-68
2021/11/01 02:35:59;;;;;;;2.10;2.00;;;;;;;6.00;96.61;94278.94;5066447;28;20360;-70
2021/11/01 02:38:31;;;;;;;1.97;1.87;;;;;;;5.90;95.79;94279.25;5058086;28;20222;-68
2021/11/01 02:41:16;;;;;;;2.00;1.80;;;;;;;5.81;95.96;94280.34;5066762;28;20585;-68
2021/11/01 02:43:48;;;;;;;2.33;2.13;;;;;;;5.55;95.91;94272.25;5047190;28;20675;-68
2021/11/01 02:46:16;;;;;;;1.60;1.50;;;;;;;5.42;96.14;94281.59;5040636;28;20231;-68
2021/11/01 02:48:46;;;;;;;2.30;2.20;;;;;;;5.35;96.48;94285.16;5035358;28;20257;-68
2021/11/01 02:51:16;;;;;;;2.43;2.23;;;;;;;5.23;96.89;94269.13;5018671;28;20222;-68
2021/11/01 02:53:45;;;;;;;2.27;2.13;;;;;;;5.22;97.73;94282.41;5035648;28;20420;-68
2021/11/01 02:56:15;;;;;;;1.70;1.60;;;;;;;5.20;97.62;94266.88;5053543;28;20320;-68
2021/11/01 02:58:45;;;;;;;2.13;2.03;;;;;;;5.20;97.84;94277.34;5037319;28;20306;-68
2021/11/01 03:01:15;;;;;;;4.70;2.50;;;;;;;5.22;98.13;94269.31;5034562;28;20222;-68
2021/11/01 03:03:44;;;;;;;2.00;1.90;;;;;;;5.25;98.32;94277.59;5044822;28;20215;-68
2021/11/01 03:06:15;;;;;;;3.07;2.87;;;;;;;5.16;98.53;94270.06;5044876;28;20585;-68
2021/11/01 03:08:45;;;;;;;2.30;2.10;;;;;;;5.17;98.90;94271.66;5041807;28;20359;-69
2021/11/01 03:11:15;;;;;;;2.40;2.30;;;;;;;5.18;98.75;94271.47;5033216;28;20229;-67
2021/11/01 03:13:45;;;;;;;3.83;3.57;;;;;;;5.19;98.77;94262.63;5049786;28;20229;-68
2021/11/01 03:16:14;;;;;;;3.77;3.03;;;;;;;5.16;99.68;94251.75;5020355;28;20291;-68
2021/11/01 03:18:49;;;;;;;2.53;2.33;;;;;;;5.19;99.92;94260.03;5046435;28;20214;-69
2021/11/01 03:21:20;;;;;;;2.63;1.90;;;;;;;5.08;99.32;94247.44;5031114;28;20237;-68
2021/11/01 03:23:49;;;;;;;2.80;2.70;;;;;;;5.08;99.18;94244.81;5040299;28;20229;-68
2021/11/01 03:26:21;;;;;;;2.50;2.40;;;;;;;5.09;99.19;94243.81;5041334;28;20249;-68
2021/11/01 03:28:51;;;;;;;2.33;2.17;;;;;;;5.12;99.28;94248.69;5034744;28;20253;-68
2021/11/01 03:31:22;;;;;;;2.87;2.53;;;;;;;5.14;99.28;94246.72;5041955;28;20357;-68
2021/11/01 03:33:52;;;;;;;2.47;2.37;;;;;;;5.08;99.87;94250.06;5050330;28;20311;-68
2021/11/01 03:36:22;;;;;;;2.23;2.13;;;;;;;5.07;99.74;94249.25;5041228;28;20234;-68
2021/11/01 03:38:51;;;;;;;2.30;2.20;;;;;;;5.05;99.65;94253.03;5043990;28;20219;-68
2021/11/01 03:41:23;;;;;;;2.53;2.33;;;;;;;5.09;99.68;94260.31;5045380;28;20230;-68
2021/11/01 03:43:56;;;;;;;2.80;2.57;;;;;;;5.10;99.65;94263.75;5047989;28;20924;-68
2021/11/01 03:46:30;;;;;;;2.33;2.13;;;;;;;5.17;99.72;94266.44;5035174;28;20289;-68
2021/11/01 03:48:59;;;;;;;2.03;1.90;;;;;;;5.27;99.80;94259.91;5038989;28;20215;-68
2021/11/01 03:51:40;;;;;;;2.13;1.93;;;;;;;5.32;100.00;94254.94;5044758;28;20298;-68
2021/11/01 03:54:09;;;;;;;2.33;2.00;;;;;;;5.43;100.00;94251.03;5035759;28;20284;-68
2021/11/01 03:56:39;;;;;;;1.63;1.53;;;;;;;5.52;100.00;94249.09;5039252;28;20280;-68
2021/11/01 03:59:08;;;;;;;1.80;1.70;;;;;;;5.67;100.00;94249.84;5045069;28;20277;-68
2021/11/01 04:01:38;;;;;;;1.07;1.00;;;;;;;5.69;99.97;94250.47;5044647;28;20226;-68
2021/11/01 04:04:07;;;;;;;1.97;1.87;;;;;;;5.70;99.55;94249.47;5041290;28;20225;-68
2021/11/01 04:06:38;;;;;;;1.10;1.10;;;;;;;5.76;99.72;94251.31;5035367;28;20246;-68
2021/11/01 04:09:08;;;;;;;2.07;1.97;;;;;;;5.81;99.23;94251.56;5040611;28;20219;-68
2021/11/01 04:11:37;;;;;;;1.63;1.53;;;;;;;5.83;99.35;94246.94;5038364;28;20651;-68
2021/11/01 04:14:12;;;;;;;1.83;1.73;;;;;;;5.83;99.31;94254.78;5048805;28;20295;-68
2021/11/01 04:16:42;;;;;;;2.40;2.30;;;;;;;5.79;98.86;94250.94;5044615;28;20272;-69
2021/11/01 04:19:32;;;;;;;2.97;2.07;;;;;;;5.79;98.05;94260.59;5043171;28;20280;-68
2021/11/01 04:22:03;;;;;;;0.90;0.90;;;;;;;5.70;97.25;94252.88;5041974;28;20219;-68
2021/11/01 04:24:31;;;;;;;1.27;1.17;;;;;;;5.70;97.57;94252.06;5035543;28;20219;-69
2021/11/01 04:27:00;;;;;;;1.43;1.33;;;;;;;5.65;97.79;94259.66;5039560;28;20703;-68
2021/11/01 04:29:32;;;;;;;2.57;2.00;;;;;;;5.66;98.09;94256.84;5046105;28;20246;-68
2021/11/01 04:32:16;;;;;;;1.80;1.70;;;;;;;5.67;98.23;94262.94;5049535;28;20210;-68
2021/11/01 04:34:48;;;;;;;1.77;1.67;;;;;;;5.71;98.17;94266.78;5064507;28;20226;-68
2021/11/01 04:37:17;;;;;;;1.40;1.10;;;;;;;5.78;98.39;94270.25;5044924;28;20517;-68
2021/11/01 04:39:57;;;;;;;1.70;1.60;;;;;;;5.82;98.32;94271.50;5048795;28;20277;-68
2021/11/01 04:53:45;;;;;;;0.70;0.70;;;;;;;5.94;98.27;94285.75;5028366;28;20223;-68
2021/11/01 04:56:15;;;;;;;0.73;0.73;;;;;;;5.96;97.96;94288.97;5034469;28;20265;-68
2021/11/01 04:58:46;;;;;;;1.30;1.20;;;;;;;6.20;98.42;94279.06;5026597;28;20604;-68
2021/11/01 05:01:19;;;;;;;1.17;1.07;;;;;;;6.49;97.54;94289.38;5032304;28;20300;-68
2021/11/01 05:03:49;;;;;;;1.83;1.70;;;;;;;6.71;96.82;94282.22;5034311;28;20222;-68
2021/11/01 05:06:22;;;;;;;1.13;1.00;;;;;;;6.85;96.02;94293.56;5058048;28;20229;-68
2021/11/01 05:08:56;;;;;;;0.60;0.60;;;;;;;6.98;95.03;94293.66;5042107;22;20457;-73
2021/11/01 05:11:31;;;;;;;1.60;0.80;;;;;;;6.92;94.27;94294.41;5069055;28;20686;-72
2021/11/01 05:14:01;;;;;;;1.20;1.20;;;;;;;6.77;94.23;94301.63;5063226;28;20267;-73
2021/11/01 05:16:48;;;;;;;1.67;1.57;;;;;;;6.68;94.22;94300.16;5056990;28;20238;-72
2021/11/01 05:19:22;;;;;;;1.30;1.23;;;;;;;6.62;93.79;94308.78;5060556;28;20706;-73
2021/11/01 05:21:58;;;;;;;1.03;0.93;;;;;;;6.50;94.15;94305.91;5065635;28;20249;-72
2021/11/01 05:24:32;;;;;;;0.80;0.80;;;;;;;6.41;94.30;94302.63;5068299;28;20233;-73
2021/11/01 05:27:23;;;;;;;1.53;1.37;;;;;;;6.30;94.98;94313.59;5061141;28;20751;-73
2021/11/01 05:29:53;;;;;;;0.90;0.80;;;;;;;6.23;95.11;94310.13;5049670;28;20238;-73
2021/11/01 05:32:24;;;;;;;1.17;0.50;;;;;;;6.15;94.98;94312.91;5066185;28;20214;-72
2021/11/01 05:34:52;;;;;;;1.10;1.07;;;;;;;6.10;95.32;94320.50;5057300;28;20292;-73
2021/11/01 05:37:20;;;;;;;1.33;0.83;;;;;;;5.96;95.78;94317.78;5049932;28;20301;-72
2021/11/01 05:39:49;;;;;;;0.77;0.77;;;;;;;5.94;96.00;94319.78;5048521;28;20226;-73
2021/11/01 05:42:18;;;;;;;1.83;1.50;;;;;;;5.87;96.08;94320.69;5047800;28;20222;-73
2021/11/01 05:44:47;;;;;;;2.20;0.90;;;;;;;5.80;97.35;94335.50;5048462;28;20222;-70
2021/11/01 05:47:15;;;;;;;1.47;1.33;;;;;;;5.82;96.82;94334.31;5047679;28;20222;-70
2021/11/01 05:49:44;;;;;;;1.37;1.27;;;;;;;5.82;97.06;94344.78;5049265;28;20218;-70
2021/11/01 05:52:18;;;;;;;0.87;0.80;;;;;;;5.85;96.69;94349.69;5047136;28;20307;-70
2021/11/01 05:54:46;;;;;;;3.27;1.33;;;;;;;6.02;96.45;94386.09;5048308;28;20315;-70
2021/11/01 05:57:19;;;;;;;1.37;1.27;;;;;;;5.92;96.73;94397.69;5053409;28;20252;-70
2021/11/01 06:00:04;;;;;;;0.93;0.90;;;;;;;6.02;97.95;94396.56;5047040;28;20953;-70
2021/11/01 06:02:45;;;;;;;1.97;1.87;;;;;;;6.47;100.00;94401.41;5047909;28;20299;-70
2021/11/01 06:05:24;;;;;;;1.27;1.17;;;;;;;7.01;100.00;94392.91;5048071;28;20389;-70
2021/11/01 06:08:22;;;;;;;1.63;1.53;;;;;;;7.32;100.00;94391.69;5060247;28;20271;-71
2021/11/01 06:13:24;;;;;;;2.70;2.50;;;;;;;7.79;100.00;94396.09;5066386;28;20265;-71
2021/11/01 06:13:40;;;;;;;1.63;1.53;;;;;;;8.02;100.00;94400.19;5076420;28;20279;-70
2021/11/01 06:16:09;;;;;;;3.13;2.93;;;;;;;8.15;100.00;94408.94;5058897;28;20272;-70
2021/11/01 06:18:38;;;;;;;3.40;3.20;;;;;;;8.24;100.00;94415.63;5047205;28;20231;-70
2021/11/01 06:21:11;;;;;;;2.47;2.37;;;;;;;8.34;100.00;94414.41;5047299;28;20267;-70
2021/11/01 06:23:40;;;;;;;3.37;3.07;;;;;;;8.44;100.00;94414.84;5030615;28;20207;-70
2021/11/01 06:26:08;;;;;;;2.40;2.20;;;;;;;8.48;100.00;94422.13;5049468;28;20225;-70
2021/11/01 06:28:41;;;;;;;3.10;2.90;;;;;;;8.56;100.00;94421.13;5047937;28;20711;-70
2021/11/01 06:31:12;;;;;;;2.80;2.60;;;;;;;8.63;100.00;94427.19;5047764;28;20302;-70
2021/11/01 06:33:53;;;;;;;2.73;2.53;;;;;;;8.71;100.00;94437.53;5029147;28;20227;-71
2021/11/01 06:39:26;;;;;;;2.70;2.60;;;;;;;8.81;100.00;94432.66;5057828;28;20246;-70
2021/11/01 06:42:16;;;;;;;2.50;2.30;;;;;;;8.96;100.00;94439.53;5052211;28;20580;-70
2021/11/01 06:45:21;;;;;;;2.60;2.20;;;;;;;8.96;100.00;94444.78;5046788;28;20229;-71
2021/11/01 06:50:49;;;;;;;2.10;2.00;;;;;;;9.08;100.00;94453.69;5066411;28;20268;-70
2021/11/01 07:15:32;;;;;;;1.83;1.73;;;;;;;9.37;100.00;94500.63;5061269;28;20738;-70
2021/11/01 07:18:10;;;;;;;1.23;1.13;;;;;;;9.39;99.95;94509.13;5062733;28;20261;-70
2021/11/01 07:20:49;;;;;;;4.33;1.47;;;;;;;9.41;100.00;94507.09;5061641;28;20211;-69
2021/11/01 07:23:53;;;;;;;1.93;1.20;;;;;;;9.45;100.00;94506.72;5060258;28;20446;-69
2021/11/01 08:22:04;;;;;;;1.70;1.60;;;;;;;10.11;95.17;94527.63;5059626;28;20273;-70
2021/11/01 08:24:57;;;;;;;0.83;0.83;;;;;;;9.89;95.65;94543.72;5058130;28;20228;-70
2021/11/01 08:36:23;;;;;;;0.40;0.20;;;;;;;9.80;94.02;94542.31;5062452;28;20210;-69
2021/11/01 08:39:12;;;;;;;2.57;0.73;;;;;;;9.75;93.60;94552.63;5066538;28;20243;-70
2021/11/01 08:50:26;;;;;;;0.30;0.30;;;;;;;9.63;94.34;94578.00;5053931;28;20260;-70
2021/11/01 09:01:28;;;;;;;3.70;1.03;;;;;;;9.28;97.45;94596.63;5057564;28;20221;-69
2021/11/01 09:04:08;;;;;;;0.40;0.40;;;;;;;9.26;98.54;94598.66;5052174;28;20218;-69
2021/11/01 09:20:48;;;;;;;0.53;0.20;;;;;;;9.29;100.00;94605.34;5063502;28;20714;-70
2021/11/01 09:26:11;;;;;;;0.83;0.83;;;;;;;9.32;100.00;94592.56;5047178;28;20246;-70
2021/11/01 09:28:44;;;;;;;0.50;0.27;;;;;;;9.41;100.00;94580.81;5061496;28;21128;-70
2021/11/01 09:36:38;;;;;;;0.60;0.60;;;;;;;9.26;100.00;94592.59;5063715;28;20254;-70
2021/11/01 09:41:56;;;;;;;0.87;0.13;;;;;;;9.03;100.00;94587.69;5059065;28;20223;-70
2021/11/01 09:44:26;;;;;;;0.77;0.20;;;;;;;9.16;100.00;94586.91;5077355;28;20449;-70
2021/11/01 09:46:56;;;;;;;0.57;0.57;;;;;;;9.17;100.00;94589.34;5065116;28;20295;-70
2021/11/01 09:49:24;;;;;;;0.23;0.20;;;;;;;9.34;100.00;94595.84;5066362;28;20210;-69
2021/11/01 09:51:54;;;;;;;0.40;0.30;;;;;;;9.52;100.00;94594.41;5054858;28;20249;-69
2021/11/01 09:54:26;;;;;;;0.30;0.20;;;;;;;9.62;99.56;94597.44;5055110;28;20347;-70
2021/11/01 09:57:04;;;;;;;0.40;0.20;;;;;;;9.49;98.42;94598.25;5053061;28;20229;-69
2021/11/01 09:59:35;;;;;;;0.10;0.10;;;;;;;9.53;97.51;94599.47;5054321;28;20253;-70
2021/11/01 10:02:07;;;;;;;0.73;0.20;;;;;;;9.54;98.00;94608.19;5054056;28;20229;-70
2021/11/01 10:04:36;;;;;;;1.20;0.40;;;;;;;9.56;97.92;94598.25;5049360;28;20738;-70
2021/11/01 10:07:20;;;;;;;0.30;0.30;;;;;;;9.65;98.23;94602.31;5058071;28;20228;-70
2021/11/01 10:09:51;;;;;;;3.30;0.50;;;;;;;9.60;97.83;94599.47;5055829;28;20257;-70
2021/11/01 10:12:22;;;;;;;1.07;0.57;;;;;;;9.64;98.04;94606.75;5061411;28;20313;-70
2021/11/01 10:14:54;;;;;;;0.77;0.77;;;;;;;9.52;98.03;94602.31;5059248;28;20287;-70
2021/11/01 10:17:35;;;;;;;0.37;0.30;;;;;;;9.49;97.88;94597.44;5056291;28;21043;-70
2021/11/01 10:20:20;;;;;;;0.63;0.63;;;;;;;9.43;97.25;94608.81;5055005;28;20275;-70
2021/11/01 10:22:48;;;;;;;0.57;0.33;;;;;;;9.48;97.42;94609.00;5062145;28;20305;-70
2021/11/01 10:25:19;;;;;;;0.43;0.43;;;;;;;9.47;97.24;94604.75;5057736;28;20301;-70
2021/11/01 10:27:54;;;;;;;0.60;0.50;;;;;;;9.55;97.89;94612.44;5058578;28;20258;-71
2021/11/01 10:30:25;;;;;;;0.67;0.50;;;;;;;9.54;98.06;94597.66;5046837;28;20793;-69
2021/11/01 10:32:56;;;;;;;0.43;0.40;;;;;;;9.60;98.25;94607.34;5051715;28;20301;-70
2021/11/01 10:35:26;;;;;;;0.50;0.50;;;;;;;9.65;97.57;94604.94;5045887;28;20284;-69
2021/11/01 10:38:04;;;;;;;2.83;0.73;;;;;;;9.52;97.17;94597.06;5056253;28;20250;-70
2021/11/01 10:40:36;;;;;;;0.53;0.20;;;;;;;9.41;96.95;94599.25;5054490;28;20226;-70
2021/11/01 10:43:26;;;;;;;0.27;0.27;;;;;;;9.09;95.54;94597.44;5061913;28;20629;-70
2021/11/01 11:11:08;;;;;;;0.13;0.10;;;;;;;9.27;96.37;94573.16;5074596;28;20222;-70
2021/11/01 11:13:42;;;;;;;0.10;0.10;;;;;;;9.28;95.84;94574.75;5061530;28;20230;-70
2021/11/01 11:16:19;;;;;;;0.67;0.67;;;;;;;9.30;95.94;94567.47;5057755;28;20279;-69
2021/11/01 11:19:01;;;;;;;0.10;0.10;;;;;;;9.37;95.85;94557.75;5056522;28;20230;-70
2021/11/01 11:24:39;;;;;;;0.30;0.30;;;;;;;9.53;95.44;94556.53;5055652;28;20249;-70
2021/11/01 11:27:24;;;;;;;0.20;0.20;;;;;;;9.55;95.99;94554.50;5071267;28;20270;-70
2021/11/01 11:30:16;;;;;;;0.10;0.10;;;;;;;9.64;95.43;94553.28;5057483;28;20248;-69
2021/11/01 11:33:00;;;;;;;0.40;0.40;;;;;;;9.69;95.33;94545.56;5056641;28;20222;-69
2021/11/01 11:38:43;;;;;;;0.20;0.20;;;;;;;9.77;95.40;94553.25;5053136;28;20322;-69
2021/11/01 11:46:58;;;;;;;0.20;0.10;;;;;;;9.64;94.87;94542.75;5046890;28;20309;-69
2021/11/01 11:47:07;;;;;;;0.10;0.10;;;;;;;9.52;95.19;94554.91;5055241;28;20223;-69
2021/11/01 11:49:36;;;;;;;0.63;0.10;;;;;;;9.55;95.17;94543.97;5061920;28;22105;-70
2021/11/01 11:52:07;;;;;;;0.20;0.17;;;;;;;9.46;95.60;94540.72;5051972;28;20261;-70
2021/11/01 11:54:39;;;;;;;0.83;0.10;;;;;;;9.49;95.88;94539.50;5051088;28;20223;-70
2021/11/01 11:57:17;;;;;;;0.10;0.10;;;;;;;9.53;95.89;94548.63;5047601;28;20230;-70
2021/11/01 11:59:48;;;;;;;0.10;0.10;;;;;;;9.53;95.51;94540.72;5054663;28;20309;-70
2021/11/01 12:02:28;;;;;;;0.20;0.10;;;;;;;9.54;95.98;94539.72;5059506;28;20689;-70
2021/11/01 12:05:21;;;;;;;0.20;0.20;;;;;;;9.55;96.70;94536.06;5048646;28;20237;-70
2021/11/01 12:08:02;;;;;;;0.40;0.17;;;;;;;9.59;96.53;94535.44;5062312;28;20221;-70
2021/11/01 12:11:03;;;;;;;0.10;0.10;;;;;;;9.68;96.38;94533.41;5060600;28;20260;-70
2021/11/01 12:14:04;;;;;;;0.13;0.10;;;;;;;9.67;96.35;94531.78;5062052;28;20223;-70
2021/11/01 12:19:25;;;;;;;0.20;0.20;;;;;;;9.76;96.23;94541.09;5026252;28;20238;-69
2021/11/01 12:21:56;;;;;;;2.57;1.97;;;;;;;9.75;96.72;94534.19;5040613;28;20662;-70
2021/11/01 12:24:25;;;;;;;0.30;0.10;;;;;;;9.61;96.79;94532.63;5037328;28;20616;-70
2021/11/01 12:27:01;;;;;;;1.27;0.77;;;;;;;9.61;96.59;94532.63;5042311;28;20297;-69
2021/11/01 12:29:30;;;;;;;0.47;0.20;;;;;;;9.56;96.99;94530.59;5035487;28;20231;-70
2021/11/01 12:32:04;;;;;;;0.87;0.83;;;;;;;9.65;97.13;94524.09;5046201;28;20232;-70
2021/11/01 12:34:41;;;;;;;0.20;0.20;;;;;;;9.64;97.06;94526.94;5062086;28;20272;-69
2021/11/01 12:37:14;;;;;;;0.20;0.20;;;;;;;9.66;97.08;94524.91;5051710;28;20219;-70
2021/11/01 12:39:48;;;;;;;0.20;0.20;;;;;;;9.68;98.07;94518.41;5057748;28;20222;-70
2021/11/01 12:42:35;;;;;;;0.10;0.10;;;;;;;9.73;98.08;94522.25;5061973;28;20234;-70
2021/11/01 12:59:12;;;;;;;0.40;0.30;;;;;;;9.85;97.33;94510.88;5056577;28;20235;-69
2021/11/01 13:01:49;;;;;;;0.20;0.17;;;;;;;9.60;96.36;94515.19;5056338;28;20273;-70
2021/11/01 13:04:34;;;;;;;0.30;0.20;;;;;;;9.16;97.08;94513.22;5059719;28;20255;-69
2021/11/01 13:07:13;;;;;;;3.20;0.10;;;;;;;9.02;98.16;94520.28;5048954;28;20241;-69
2021/11/01 13:09:45;;;;;;;0.20;0.10;;;;;;;9.17;98.20;94528.00;5060046;28;20325;-69
2021/11/01 13:12:31;;;;;;;0.20;0.20;;;;;;;9.05;97.92;94527.78;5050034;28;20233;-69
2021/11/01 13:15:08;;;;;;;2.10;0.50;;;;;;;9.03;98.74;94519.28;5045462;28;20210;-69
2021/11/01 13:17:52;;;;;;;0.20;0.20;;;;;;;8.98;98.46;94519.09;5060006;28;20287;-69
2021/11/01 13:20:24;;;;;;;0.30;0.20;;;;;;;8.83;98.17;94524.53;5044935;28;20214;-69
2021/11/01 13:22:56;;;;;;;0.47;0.13;;;;;;;8.75;97.40;94517.63;5061620;28;20248;-69
2021/11/01 13:25:29;;;;;;;0.13;0.13;;;;;;;8.72;96.66;94533.81;5060434;28;20285;-69
2021/11/01 13:28:22;;;;;;;0.30;0.30;;;;;;;8.81;97.19;94519.47;5043809;28;20288;-69
2021/11/01 13:36:27;;;;;;;0.97;0.50;;;;;;;8.39;97.11;94525.03;5061083;28;20255;-69
2021/11/01 13:39:00;;;;;;;0.10;0.10;;;;;;;8.42;97.08;94537.81;5059750;28;20312;-69
2021/11/01 13:41:29;;;;;;;0.17;0.10;;;;;;;8.22;96.90;94538.50;5058137;28;20228;-68
2021/11/01 13:44:07;;;;;;;0.10;0.10;;;;;;;8.18;97.47;94531.22;5056694;28;20213;-69
2021/11/01 13:46:43;;;;;;;0.50;0.30;;;;;;;8.27;97.75;94530.84;5047475;28;20245;-69
2021/11/01 13:49:12;;;;;;;0.20;0.20;;;;;;;8.24;98.01;94531.25;5066824;28;20370;-69
2021/11/01 13:51:42;;;;;;;2.07;0.20;;;;;;;8.19;97.91;94528.38;5048282;28;20254;-69
2021/11/01 13:54:17;;;;;;;0.37;0.37;;;;;;;8.11;97.95;94530.38;5047580;28;20254;-69
2021/11/01 13:56:47;;;;;;;0.20;0.20;;;;;;;8.14;97.87;94530.00;5054740;28;20836;-69
2021/11/01 13:59:34;;;;;;;0.50;0.40;;;;;;;8.20;98.14;94535.25;5064239;28;20718;-68
2021/11/01 14:02:41;;;;;;;0.10;0.10;;;;;;;8.07;97.54;94529.16;5051766;28;20269;-68
2021/11/01 14:11:10;;;;;;;0.20;0.10;;;;;;;7.94;98.23;94514.94;5063095;28;20293;-68
2021/11/01 14:13:52;;;;;;;0.10;0.10;;;;;;;7.96;98.16;94520.03;5063746;28;20681;-68
2021/11/01 14:16:26;;;;;;;0.10;0.10;;;;;;;7.99;97.80;94522.25;5059299;28;20312;-69
2021/11/01 15:01:32;;;;;;;0.90;0.53;;;;;;;7.92;96.54;94493.31;5063027;28;20307;-68
2021/11/01 15:07:24;;;;;;;0.90;0.70;;;;;;;7.89;97.36;94493.72;4994911;28;20716;-68
2021/11/01 15:15:27;;;;;;;1.00;0.83;;;;;;;7.77;96.82;94502.31;5041962;28;20219;-68
2021/11/01 15:18:13;;;;;;;1.40;1.20;;;;;;;7.68;96.47;94494.63;5037771;28;20232;-68
2021/11/01 15:20:56;;;;;;;6.07;4.83;;;;;;;7.74;96.72;94493.03;5040876;28;20677;-68
2021/11/01 15:23:35;;;;;;;2.73;1.67;;;;;;;7.57;96.44;94484.66;5016316;28;20714;-68
2021/11/01 15:26:27;;;;;;;1.47;1.20;;;;;;;7.52;96.88;94484.44;5052162;28;20248;-67
2021/11/01 15:34:55;;;;;;;0.60;0.60;;;;;;;7.38;95.67;94488.00;5061622;28;20257;-68
2021/11/01 15:40:21;;;;;;;1.27;1.17;;;;;;;7.35;95.97;94483.13;5057519;28;20224;-68
2021/11/01 16:16:39;;;;;;;0.30;0.30;;;;;;;7.07;94.61;94489.22;5052424;28;20247;-68
2021/11/01 16:19:08;;;;;;;0.53;0.40;;;;;;;7.06;94.66;94484.16;5062233;28;20252;-68
2021/11/01 16:21:37;;;;;;;0.83;0.47;;;;;;;7.02;94.97;94491.59;5061690;28;20226;-68
2021/11/01 16:24:06;;;;;;;0.47;0.47;;;;;;;6.99;95.05;94505.09;5053883;28;20211;-67
2021/11/01 16:26:35;;;;;;;1.10;1.00;;;;;;;6.91;95.82;94507.03;5058077;28;20314;-67
2021/11/01 16:29:07;;;;;;;0.80;0.80;;;;;;;6.87;96.06;94509.22;5057951;28;20253;-68
2021/11/01 16:31:49;;;;;;;0.90;0.60;;;;;;;6.83;95.99;94505.34;5053088;28;20227;-67
2021/11/01 16:34:21;;;;;;;1.20;0.90;;;;;;;6.86;95.46;94510.22;5048774;28;20317;-68
2021/11/01 16:37:12;;;;;;;1.63;1.50;;;;;;;6.81;95.88;94507.34;5057011;28;20675;-68
2021/11/01 16:39:47;;;;;;;2.90;2.63;;;;;;;6.75;95.88;94505.47;5043549;28;20249;-70
2021/11/01 16:42:21;;;;;;;1.73;1.20;;;;;;;6.72;96.02;94511.91;5052871;28;20219;-71
2021/11/01 16:44:50;;;;;;;1.10;0.50;;;;;;;6.73;95.90;94510.09;5043907;28;20250;-70
2021/11/01 16:47:18;;;;;;;0.60;0.50;;;;;;;6.70;95.90;94500.81;5055817;28;20801;-71
2021/11/01 16:49:50;;;;;;;0.50;0.50;;;;;;;6.74;96.59;94496.00;5042374;28;20223;-70
2021/11/01 16:52:19;;;;;;;0.83;0.83;;;;;;;6.60;96.28;94494.28;5045403;28;20241;-70
2021/11/01 16:54:52;;;;;;;0.60;0.60;;;;;;;6.63;96.47;94501.75;5053293;28;20214;-70
2021/11/01 16:57:35;;;;;;;2.90;2.70;;;;;;;6.68;96.85;94499.38;5062518;28;20658;-69
2021/11/01 17:00:15;;;;;;;4.30;3.97;;;;;;;6.74;96.89;94490.75;5062266;28;20226;-70
2021/11/01 17:05:36;;;;;;;1.47;1.37;;;;;;;6.73;97.20;94486.50;5046761;28;20253;-70
2021/11/01 17:22:20;;;;;;;1.23;1.13;;;;;;;6.72;97.78;94466.53;5047836;28;20375;-70
2021/11/01 17:24:51;;;;;;;0.97;0.93;;;;;;;6.74;97.44;94461.91;5048322;28;20300;-71
2021/11/01 17:27:43;;;;;;;2.13;0.93;;;;;;;6.78;97.26;94457.94;5049133;28;20225;-70
2021/11/01 18:40:44;;;;;;;1.10;1.07;;;;;;;7.03;97.92;94440.75;5060190;28;20245;-71
2021/11/01 18:46:24;;;;;;;1.67;1.57;;;;;;;7.02;97.73;94441.75;5063897;28;20229;-72